Terminal Aerodrome Forecast
Issued by NWS

Home | Current Version | Previous Version | Text Only | Print | Product List | Glossary On
Versions: 1 2 3 4 5 6 7 8 9 10 11 12 13 14 15 16 17 18 19 20 21 22 23 24 25 26 27 28
000
FTUS41 KGYX 032041 AAA
TAFHIE
TAF AMD
KHIE 032041Z 0321/0418 23008KT P6SM VCTS SCT050CB BKN100
      TEMPO 0321/0401 23015G32KT 1SM +TSRA BR OVC030CB
     FM040100 VRB03KT 6SM -SHRA BR OVC035
     FM040600 VRB03KT 1/2SM FG BKN002
     FM041100 VRB03KT P6SM SCT002=

USA.gov is the U.S. government's official web portal to all federal, state and local government web resources and services.